createdAt,value
2022-07-29T00:02:05.115Z,14.70
2022-07-29T00:04:53.415Z,14.70
2022-07-29T00:07:42.308Z,14.70
2022-07-29T00:10:30.543Z,14.60
2022-07-29T00:13:18.775Z,14.60
2022-07-29T00:16:21.848Z,14.50
2022-07-29T00:19:10.145Z,14.50
2022-07-29T00:21:59.175Z,14.40
2022-07-29T00:24:49.122Z,14.40
2022-07-29T00:27:37.943Z,14.40
2022-07-29T00:30:26.253Z,14.30
2022-07-29T00:33:15.897Z,14.30
2022-07-29T00:36:03.482Z,14.30
2022-07-29T00:38:52.789Z,14.20
2022-07-29T00:41:41.002Z,14.20
2022-07-29T00:44:29.249Z,14.10
2022-07-29T00:47:17.625Z,14.10
2022-07-29T00:50:08.946Z,14.00
2022-07-29T00:52:57.466Z,14.00
2022-07-29T00:55:45.763Z,13.90
2022-07-29T00:58:34.062Z,13.80
2022-07-29T01:01:22.293Z,13.80
2022-07-29T01:04:10.680Z,13.80
2022-07-29T01:07:01.480Z,13.70
2022-07-29T01:09:52.285Z,13.70
2022-07-29T01:12:40.976Z,13.80
2022-07-29T01:15:29.502Z,13.70
2022-07-29T01:18:22.435Z,13.70
2022-07-29T01:21:26.618Z,13.70
2022-07-29T01:24:35.848Z,13.60
2022-07-29T01:27:41.076Z,13.50
2022-07-29T01:30:34.443Z,13.50
2022-07-29T01:33:43.548Z,13.50
2022-07-29T01:36:35.558Z,13.50
2022-07-29T01:39:29.136Z,13.50
2022-07-29T01:45:14.323Z,13.50
2022-07-29T01:48:07.919Z,13.40
2022-07-29T01:51:02.320Z,13.50
2022-07-29T01:53:57.384Z,13.40
2022-07-29T01:56:46.985Z,13.30
2022-07-29T01:59:36.766Z,13.40
2022-07-29T02:02:26.737Z,13.30
2022-07-29T02:05:19.324Z,13.30
2022-07-29T02:08:09.464Z,13.30
2022-07-29T02:10:58.861Z,13.30
2022-07-29T02:13:48.445Z,13.30
2022-07-29T02:16:39.724Z,13.30
2022-07-29T02:19:29.490Z,13.30
2022-07-29T02:22:20.664Z,13.30
2022-07-29T02:25:13.897Z,13.30
2022-07-29T02:28:02.860Z,13.30
2022-07-29T02:30:56.302Z,13.30
2022-07-29T02:33:46.028Z,13.30
2022-07-29T02:36:35.755Z,13.30
2022-07-29T02:39:27.779Z,13.30
2022-07-29T02:42:18.355Z,13.30
2022-07-29T02:45:07.758Z,13.30
2022-07-29T02:47:57.262Z,13.30
2022-07-29T02:50:51.915Z,13.30
2022-07-29T02:53:43.233Z,13.30
2022-07-29T02:56:36.052Z,13.30
2022-07-29T02:59:28.983Z,13.30
2022-07-29T03:02:18.607Z,13.30
2022-07-29T03:05:11.285Z,13.30
2022-07-29T03:08:03.119Z,13.30
2022-07-29T03:10:52.095Z,13.30
2022-07-29T03:13:42.147Z,13.30
2022-07-29T03:16:31.024Z,13.30
2022-07-29T03:19:19.527Z,13.30
2022-07-29T03:22:08.368Z,13.40
2022-07-29T03:24:56.725Z,13.30
2022-07-29T03:27:45.476Z,13.30
2022-07-29T03:30:35.102Z,13.30
2022-07-29T03:33:23.341Z,13.30
2022-07-29T03:36:11.759Z,13.40
2022-07-29T03:39:00.281Z,13.30
2022-07-29T03:41:51.391Z,13.40
2022-07-29T03:44:40.933Z,13.40
2022-07-29T03:47:50.270Z,13.40
2022-07-29T03:50:38.987Z,13.40
2022-07-29T03:53:27.319Z,13.40
2022-07-29T03:56:18.955Z,13.40
2022-07-29T03:59:08.568Z,13.40
2022-07-29T04:01:59.167Z,13.40
2022-07-29T04:04:49.082Z,13.50
2022-07-29T04:07:37.323Z,13.50
2022-07-29T04:10:30.431Z,13.50
2022-07-29T04:13:20.808Z,13.50
2022-07-29T04:16:09.067Z,13.50
2022-07-29T04:18:57.328Z,13.60
2022-07-29T04:21:47.123Z,13.60
2022-07-29T04:24:36.482Z,13.60
2022-07-29T04:27:25.069Z,13.60
2022-07-29T04:30:13.755Z,13.70
2022-07-29T04:33:02.546Z,13.70
2022-07-29T04:35:52.701Z,13.70
2022-07-29T04:38:45.339Z,13.80
2022-07-29T04:41:33.870Z,13.80
2022-07-29T04:44:22.931Z,13.80
2022-07-29T04:47:17.063Z,13.80
2022-07-29T04:50:06.247Z,13.90
2022-07-29T04:52:54.485Z,13.90
2022-07-29T04:55:44.107Z,13.90
2022-07-29T04:58:32.320Z,13.90
2022-07-29T05:01:20.985Z,14.00
2022-07-29T05:04:09.255Z,14.00
2022-07-29T05:06:57.521Z,14.00
2022-07-29T05:09:45.713Z,14.00
2022-07-29T05:12:35.276Z,14.00
2022-07-29T05:15:23.477Z,14.10
2022-07-29T05:18:11.706Z,14.10
2022-07-29T05:20:59.887Z,14.10
2022-07-29T05:23:48.064Z,14.10
2022-07-29T05:26:36.249Z,14.20
2022-07-29T05:29:42.794Z,14.20
2022-07-29T05:32:31.766Z,14.20
2022-07-29T05:35:20.017Z,14.30
2022-07-29T05:38:08.217Z,14.30
2022-07-29T05:40:58.932Z,14.40
2022-07-29T05:43:47.195Z,14.40
2022-07-29T05:46:37.141Z,14.40
2022-07-29T05:49:27.262Z,14.50
2022-07-29T05:52:16.062Z,14.60
2022-07-29T05:55:06.446Z,14.70
2022-07-29T05:57:54.774Z,14.70
2022-07-29T06:00:43.126Z,14.80
2022-07-29T06:03:32.787Z,14.80
2022-07-29T06:06:21.061Z,14.90
2022-07-29T06:09:12.781Z,14.90
2022-07-29T06:12:02.137Z,15.00
2022-07-29T06:14:54.099Z,15.10
2022-07-29T06:17:59.238Z,15.20
2022-07-29T06:20:50.537Z,15.20
2022-07-29T06:23:39.314Z,15.30
2022-07-29T06:26:30.622Z,15.40
2022-07-29T06:29:19.773Z,15.50
2022-07-29T06:32:10.928Z,15.50
2022-07-29T06:35:24.481Z,15.60
2022-07-29T06:38:09.601Z,15.70
2022-07-29T06:41:17.010Z,15.80
2022-07-29T06:44:06.374Z,15.90
2022-07-29T06:46:55.685Z,16.00
2022-07-29T06:49:43.980Z,16.00
2022-07-29T06:52:32.414Z,16.10
2022-07-29T06:55:24.838Z,16.20
2022-07-29T06:58:15.180Z,16.30
2022-07-29T07:01:05.120Z,16.30
2022-07-29T07:03:53.357Z,16.40
2022-07-29T07:06:43.051Z,16.50
2022-07-29T07:09:40.467Z,16.60
2022-07-29T07:12:30.741Z,16.70
2022-07-29T07:15:22.710Z,16.80
2022-07-29T07:18:27.282Z,16.90
2022-07-29T07:21:18.761Z,16.90
2022-07-29T07:24:08.386Z,17.00
2022-07-29T07:26:56.585Z,17.10
2022-07-29T07:29:46.151Z,17.20
2022-07-29T07:32:34.461Z,17.30
2022-07-29T07:35:22.844Z,17.40
2022-07-29T07:38:11.094Z,17.40
2022-07-29T07:40:59.368Z,17.50
2022-07-29T07:43:47.842Z,17.60
2022-07-29T07:46:37.401Z,17.70
2022-07-29T07:49:27.868Z,17.70
2022-07-29T07:52:16.534Z,17.80
2022-07-29T07:55:05.116Z,17.90
2022-07-29T07:57:53.690Z,17.90
2022-07-29T08:00:41.998Z,18.00
2022-07-29T08:03:33.529Z,18.00
2022-07-29T08:06:21.730Z,18.00
2022-07-29T08:09:28.075Z,18.10
2022-07-29T08:12:17.759Z,18.10
2022-07-29T08:15:08.546Z,18.20
2022-07-29T08:17:56.786Z,18.20
2022-07-29T08:20:46.355Z,18.30
2022-07-29T08:23:47.148Z,18.40
2022-07-29T08:26:37.839Z,18.50
2022-07-29T08:29:26.083Z,18.60
2022-07-29T08:32:26.183Z,18.60
2022-07-29T08:35:23.091Z,18.70
2022-07-29T08:38:12.694Z,18.80
2022-07-29T08:41:02.110Z,18.90
2022-07-29T08:43:51.913Z,19.00
2022-07-29T08:46:40.787Z,19.10
2022-07-29T08:49:32.630Z,19.30
2022-07-29T08:52:23.074Z,19.30
2022-07-29T08:55:13.722Z,19.40
2022-07-29T08:58:04.578Z,19.50
2022-07-29T09:00:55.318Z,19.60
2022-07-29T09:03:46.696Z,19.70
2022-07-29T09:06:38.827Z,19.80
2022-07-29T09:09:27.202Z,19.90
2022-07-29T09:12:29.554Z,20.00
2022-07-29T09:15:19.537Z,20.10
2022-07-29T09:18:07.821Z,20.30
2022-07-29T09:21:27.430Z,20.40
2022-07-29T09:24:16.828Z,20.60
2022-07-29T09:27:08.338Z,20.70
2022-07-29T09:30:02.462Z,20.90
2022-07-29T09:32:59.215Z,21.00
2022-07-29T09:35:56.918Z,21.00
2022-07-29T09:38:59.989Z,21.10
2022-07-29T09:41:49.977Z,21.20
2022-07-29T09:44:46.391Z,21.20
2022-07-29T09:47:47.835Z,21.30
2022-07-29T09:50:40.807Z,21.40
2022-07-29T09:53:34.307Z,21.40
2022-07-29T09:56:25.648Z,21.50
2022-07-29T09:59:13.848Z,21.50
2022-07-29T10:02:04.893Z,21.60
2022-07-29T10:04:54.610Z,21.70
2022-07-29T10:07:53.493Z,21.70
2022-07-29T10:10:45.139Z,21.80
2022-07-29T10:13:34.738Z,21.80
2022-07-29T10:16:23.146Z,21.90
2022-07-29T10:19:11.559Z,21.90
2022-07-29T10:22:02.627Z,21.90
2022-07-29T10:24:51.290Z,22.00
2022-07-29T10:27:40.050Z,22.00
2022-07-29T10:30:31.455Z,22.00
2022-07-29T10:33:33.365Z,22.10
2022-07-29T10:36:34.550Z,22.20
2022-07-29T10:39:41.754Z,22.20
2022-07-29T10:42:34.113Z,22.30
2022-07-29T10:45:24.808Z,22.30
2022-07-29T10:48:13.195Z,22.30
2022-07-29T10:51:06.982Z,22.40
2022-07-29T10:53:55.686Z,22.40
2022-07-29T10:56:47.681Z,22.50
2022-07-29T10:59:36.667Z,22.50
2022-07-29T11:02:52.184Z,22.60
2022-07-29T11:05:59.579Z,22.60
2022-07-29T11:09:18.084Z,22.70
2022-07-29T11:12:50.609Z,22.80
2022-07-29T11:15:54.518Z,22.90
2022-07-29T11:19:30.092Z,23.00
2022-07-29T11:22:34.464Z,23.00
2022-07-29T11:25:43.035Z,23.10
2022-07-29T11:28:50.639Z,23.20
2022-07-29T11:31:42.380Z,23.30
2022-07-29T11:34:33.339Z,23.40
2022-07-29T11:37:27.800Z,23.60
2022-07-29T11:40:19.955Z,23.70
2022-07-29T11:43:08.201Z,23.80
2022-07-29T11:45:57.871Z,23.90
2022-07-29T11:48:47.190Z,24.00
2022-07-29T11:51:56.714Z,24.20
2022-07-29T11:54:58.168Z,24.20
2022-07-29T11:58:03.736Z,24.30
2022-07-29T12:00:55.563Z,24.40
2022-07-29T12:03:45.757Z,24.40
2022-07-29T12:06:34.112Z,24.40
2022-07-29T12:09:23.680Z,24.40
2022-07-29T12:12:12.008Z,24.40
2022-07-29T12:15:00.303Z,24.40
2022-07-29T12:17:50.563Z,24.40
2022-07-29T12:20:40.233Z,24.60
2022-07-29T12:23:29.411Z,24.70
2022-07-29T12:26:25.821Z,24.90
2022-07-29T12:29:20.425Z,25.10
2022-07-29T12:32:22.803Z,25.30
2022-07-29T12:35:14.250Z,25.40
2022-07-29T12:38:04.581Z,25.50
2022-07-29T12:40:55.605Z,25.70
2022-07-29T12:43:55.347Z,25.80
2022-07-29T12:46:43.626Z,25.90
2022-07-29T12:49:32.042Z,25.90
2022-07-29T12:52:28.251Z,26.10
2022-07-29T12:55:17.772Z,26.20
2022-07-29T12:58:06.024Z,26.30
2022-07-29T13:01:05.035Z,26.50
2022-07-29T13:04:05.345Z,26.60
2022-07-29T13:07:00.594Z,26.70
2022-07-29T13:09:49.418Z,26.60
2022-07-29T13:12:39.580Z,26.60
2022-07-29T13:15:28.049Z,26.60
2022-07-29T13:18:29.886Z,26.70
2022-07-29T13:21:18.959Z,26.80
2022-07-29T13:24:08.605Z,26.90
2022-07-29T13:26:56.805Z,27.10
2022-07-29T13:29:47.389Z,27.20
2022-07-29T13:32:37.220Z,27.30
2022-07-29T13:35:25.499Z,27.40
2022-07-29T13:38:13.732Z,27.50
2022-07-29T13:41:02.893Z,27.60
2022-07-29T13:43:51.655Z,27.70
2022-07-29T13:46:41.226Z,27.80
2022-07-29T13:49:29.850Z,28.00
2022-07-29T13:52:18.242Z,27.80
2022-07-29T13:55:07.846Z,27.80
2022-07-29T13:57:56.109Z,27.70
2022-07-29T14:00:44.357Z,27.80
2022-07-29T14:03:33.943Z,27.70
2022-07-29T14:06:22.272Z,27.70
2022-07-29T14:09:10.642Z,27.60
2022-07-29T14:11:59.096Z,27.60
2022-07-29T14:14:47.589Z,27.50
2022-07-29T14:17:35.812Z,27.50
2022-07-29T14:20:25.429Z,27.60
2022-07-29T14:23:14.450Z,27.30
2022-07-29T14:26:04.790Z,27.30
2022-07-29T14:28:56.973Z,27.30
2022-07-29T14:31:45.288Z,27.30
2022-07-29T14:34:37.056Z,27.40
2022-07-29T14:37:26.647Z,27.40
2022-07-29T14:40:14.841Z,27.30
2022-07-29T14:43:03.758Z,27.20
2022-07-29T14:45:52.579Z,27.20
2022-07-29T14:48:42.474Z,27.10
2022-07-29T14:51:32.481Z,27.10
2022-07-29T14:54:22.231Z,27.10
2022-07-29T14:57:10.526Z,27.00
2022-07-29T14:59:58.743Z,27.00
2022-07-29T15:03:01.517Z,27.00
2022-07-29T15:05:50.801Z,27.00
2022-07-29T15:08:39.080Z,27.00
2022-07-29T15:11:28.723Z,27.10
2022-07-29T15:14:16.966Z,27.10
2022-07-29T15:17:05.331Z,27.10
2022-07-29T15:19:56.294Z,27.10
2022-07-29T15:22:44.634Z,27.20
2022-07-29T15:25:33.933Z,27.40
2022-07-29T15:28:23.594Z,27.50
2022-07-29T15:31:11.805Z,27.60
2022-07-29T15:34:03.657Z,27.60
2022-07-29T15:36:54.454Z,27.60
2022-07-29T15:39:42.831Z,27.60
2022-07-29T15:42:31.158Z,27.60
2022-07-29T15:45:20.700Z,27.40
2022-07-29T15:48:14.510Z,27.30
2022-07-29T15:51:03.172Z,27.30
2022-07-29T15:53:53.618Z,27.40
2022-07-29T15:56:42.315Z,27.40
2022-07-29T15:59:30.653Z,27.50
2022-07-29T16:02:20.916Z,27.60
2022-07-29T16:05:11.176Z,27.60
2022-07-29T16:08:00.580Z,27.60
2022-07-29T16:10:48.826Z,27.60
2022-07-29T16:13:37.068Z,27.60
2022-07-29T16:16:25.408Z,27.60
2022-07-29T16:19:15.457Z,27.50
2022-07-29T16:22:03.709Z,27.40
2022-07-29T16:24:51.939Z,27.40
2022-07-29T16:27:40.250Z,27.30
2022-07-29T16:30:28.498Z,27.30
2022-07-29T16:33:16.702Z,27.10
2022-07-29T16:36:07.279Z,27.00
2022-07-29T16:38:55.500Z,26.90
2022-07-29T16:41:43.741Z,26.80
2022-07-29T16:44:32.020Z,26.80
2022-07-29T16:47:20.259Z,26.70
2022-07-29T16:50:10.148Z,26.70
2022-07-29T16:53:00.019Z,26.60
2022-07-29T16:55:48.325Z,26.40
2022-07-29T16:58:39.231Z,26.30
2022-07-29T17:01:34.237Z,26.20
2022-07-29T17:04:22.969Z,26.10
2022-07-29T17:07:11.643Z,25.90
2022-07-29T17:10:04.882Z,25.80
2022-07-29T17:12:53.207Z,25.70
2022-07-29T17:15:42.473Z,25.60
2022-07-29T17:18:30.689Z,25.40
2022-07-29T17:21:19.569Z,25.30
2022-07-29T17:24:08.917Z,25.20
2022-07-29T17:26:58.977Z,25.10
2022-07-29T17:29:47.837Z,24.90
2022-07-29T17:32:38.660Z,24.80
2022-07-29T17:35:44.231Z,24.70
2022-07-29T17:38:32.429Z,24.50
2022-07-29T17:41:20.717Z,24.30
2022-07-29T17:44:10.377Z,24.20
2022-07-29T17:46:58.778Z,24.10
2022-07-29T17:49:47.258Z,24.00
2022-07-29T17:52:35.658Z,24.00
2022-07-29T17:55:23.894Z,23.80
2022-07-29T17:58:12.698Z,23.80
2022-07-29T18:01:02.343Z,23.70
2022-07-29T18:03:50.693Z,23.70
2022-07-29T18:06:39.201Z,23.50
2022-07-29T18:09:27.503Z,23.40
2022-07-29T18:12:15.905Z,23.40
2022-07-29T18:15:04.945Z,23.30
2022-07-29T18:17:57.563Z,23.30
2022-07-29T18:20:47.156Z,23.20
2022-07-29T18:23:35.968Z,23.20
2022-07-29T18:26:24.419Z,23.10
2022-07-29T18:29:18.938Z,23.00
2022-07-29T18:32:07.978Z,23.00
2022-07-29T18:34:57.567Z,22.80
2022-07-29T18:38:01.239Z,22.80
2022-07-29T18:40:51.480Z,22.70
2022-07-29T18:43:39.740Z,22.60
2022-07-29T18:46:28.017Z,22.50
2022-07-29T18:49:17.116Z,22.50
2022-07-29T18:52:06.932Z,22.40
2022-07-29T18:54:55.271Z,22.30
2022-07-29T18:57:54.745Z,22.30
2022-07-29T19:00:44.698Z,22.20
2022-07-29T19:03:33.070Z,22.10
2022-07-29T19:06:25.383Z,22.00
2022-07-29T19:09:16.182Z,22.00
2022-07-29T19:12:04.699Z,21.90
2022-07-29T19:14:52.931Z,21.90
2022-07-29T19:17:41.233Z,21.80
2022-07-29T19:20:29.783Z,21.70
2022-07-29T19:23:18.459Z,21.70
2022-07-29T19:26:08.442Z,21.70
2022-07-29T19:28:56.736Z,21.60
2022-07-29T19:31:45.378Z,21.50
2022-07-29T19:34:34.280Z,21.50
2022-07-29T19:37:22.524Z,21.40
2022-07-29T19:40:12.206Z,21.40
2022-07-29T19:43:01.882Z,21.30
2022-07-29T19:45:59.806Z,21.30
2022-07-29T19:48:48.160Z,21.20
2022-07-29T19:51:36.710Z,21.10
2022-07-29T19:54:26.490Z,21.10
2022-07-29T19:57:14.708Z,21.00
2022-07-29T20:00:04.995Z,20.90
2022-07-29T20:02:59.569Z,20.90
2022-07-29T20:05:50.910Z,20.80
2022-07-29T20:08:39.634Z,20.80
2022-07-29T20:11:29.616Z,20.70
2022-07-29T20:14:17.854Z,20.70
2022-07-29T20:17:07.810Z,20.60
2022-07-29T20:19:56.925Z,20.60
2022-07-29T20:22:45.280Z,20.50
2022-07-29T20:25:38.270Z,20.50
2022-07-29T20:28:26.525Z,20.40
2022-07-29T20:31:16.642Z,20.40
2022-07-29T20:34:06.409Z,20.30
2022-07-29T20:36:54.706Z,20.30
2022-07-29T20:39:43.682Z,20.30
2022-07-29T20:42:32.084Z,20.30
2022-07-29T20:45:20.918Z,20.30
2022-07-29T20:48:10.436Z,20.20
2022-07-29T20:50:59.986Z,20.20
2022-07-29T20:53:49.102Z,20.20
2022-07-29T20:56:37.317Z,20.10
2022-07-29T20:59:25.538Z,20.10
2022-07-29T21:02:13.795Z,20.00
2022-07-29T21:05:02.139Z,20.00
2022-07-29T21:07:58.004Z,19.90
2022-07-29T21:10:46.556Z,19.90
2022-07-29T21:13:38.236Z,19.90
2022-07-29T21:16:28.571Z,19.90
2022-07-29T21:19:17.308Z,19.80
2022-07-29T21:22:05.651Z,19.80
2022-07-29T21:24:55.230Z,19.80
2022-07-29T21:28:01.042Z,19.80
2022-07-29T21:30:49.234Z,19.70
2022-07-29T21:33:37.955Z,19.70
2022-07-29T21:36:47.654Z,19.70
2022-07-29T21:39:34.250Z,19.60
2022-07-29T21:42:23.991Z,19.60
2022-07-29T21:45:13.322Z,19.50
2022-07-29T21:48:01.527Z,19.50
2022-07-29T21:50:51.314Z,19.50
2022-07-29T21:53:39.513Z,19.40
2022-07-29T21:56:28.241Z,19.40
2022-07-29T21:59:18.182Z,19.40
2022-07-29T22:02:08.605Z,19.40
2022-07-29T22:04:56.759Z,19.40
2022-07-29T22:07:56.320Z,19.30
2022-07-29T22:10:45.422Z,19.30
2022-07-29T22:13:33.681Z,19.30
2022-07-29T22:16:26.604Z,19.30
2022-07-29T22:19:15.684Z,19.20
2022-07-29T22:22:03.950Z,19.20
2022-07-29T22:24:52.218Z,19.20
2022-07-29T22:27:40.969Z,19.20
2022-07-29T22:30:29.418Z,19.10
2022-07-29T22:33:18.989Z,19.10
2022-07-29T22:36:10.398Z,19.10
2022-07-29T22:38:58.551Z,19.10
2022-07-29T22:41:46.934Z,19.00
2022-07-29T22:44:35.241Z,19.00
2022-07-29T22:47:38.951Z,19.00
2022-07-29T22:50:32.940Z,19.00
2022-07-29T22:53:21.093Z,19.00
2022-07-29T22:56:09.350Z,19.00
2022-07-29T22:58:57.610Z,19.00
2022-07-29T23:01:45.870Z,19.00
2022-07-29T23:04:34.129Z,18.90
2022-07-29T23:07:23.731Z,18.90
2022-07-29T23:10:11.997Z,18.90
2022-07-29T23:13:00.230Z,18.90
2022-07-29T23:15:48.407Z,18.80
2022-07-29T23:18:38.430Z,18.80
2022-07-29T23:21:26.743Z,18.80
2022-07-29T23:24:16.282Z,18.70
2022-07-29T23:27:04.925Z,18.70
2022-07-29T23:29:53.143Z,18.70
2022-07-29T23:32:41.489Z,18.70
2022-07-29T23:35:32.521Z,18.70
2022-07-29T23:38:20.692Z,18.60
2022-07-29T23:41:10.458Z,18.60
2022-07-29T23:43:59.629Z,18.60
2022-07-29T23:46:47.954Z,18.60
2022-07-29T23:49:36.199Z,18.50
2022-07-29T23:52:24.838Z,18.50
2022-07-29T23:55:37.595Z,18.50
2022-07-29T23:58:23.930Z,18.50
